Main page
METAR-TAF:

METAR-TAF

Airports :

Shively Field

Saratoga, Wyoming, United States

latitude: 41-26-41N, longitude: 106-49-25W, elevation: 7009 ft

Current weather observation

The report was made 8 minutes ago, at 13:55 UTC
Wind 3 mph from the South/Southeast
Temperature 32°F
Humidity 69%
Pressure 30.29 in. Hg
Visibility: 10 miles
Clear sky

METAR: KSAA 211355Z AUTO 16003KT 10SM CLR 00/M05 A3029 RMK AO2

Time: 08:03 (14:03 UTC)


TAF: missing

Weather observations and forecasts of more than 4000 airports (METAR and TAF reports).

The available stations are represented by yellow and red dots on the map.

Hover mouse over dot to see the name of the station.

Then click to see weather observations and forecasts.

To change the map : click on the green buttons with a black cross to zoom in, on the green button with a dash to zoom out, or on the green arrows for adjacent maps.


METAR-TAF: